Troutville, Virginia
Current Conditions -  °F | °C
As of 9:54 AM on Monday 24 Nov 2014 (Local Time) from KROA Reporting Station
Few Clouds Few Clouds  
Wind Chill: 59°   Ceiling: Unl
Heat Index: 59°   Visibility: 10mi
Dew Point: 52°   Wind: 0mph
Humidity: 78%   Direction: NA
Pressure: 29.74"   Gusts: NA
Location:  37.42°N, 79.87°W
Report Text: KROA 241454Z 00000KT 10SM FEW033 15/11 A2974 RMK AO2 SLP069 T01500111 51005
Loading
Personal Weather Stations






























Interactive Weather Map New forecast layout! Learn more

10-Day Weather Forecast

Advertisements
Track Severe Weather on mobile